createdAt,value
2023-02-03T00:02:15.512Z,5.00
2023-02-03T00:04:42.647Z,5.65
2023-02-03T00:07:14.663Z,5.07
2023-02-03T00:09:41.825Z,6.03
2023-02-03T00:12:09.239Z,6.03
2023-02-03T00:14:37.979Z,5.82
2023-02-03T00:17:06.230Z,5.35
2023-02-03T00:19:33.395Z,6.32
2023-02-03T00:22:01.316Z,6.45
2023-02-03T00:24:28.599Z,5.35
2023-02-03T00:26:56.055Z,5.82
2023-02-03T00:29:25.950Z,5.65
2023-02-03T00:31:54.366Z,5.63
2023-02-03T00:34:21.777Z,5.30
2023-02-03T00:36:49.244Z,7.63
2023-02-03T00:39:16.650Z,6.65
2023-02-03T00:41:44.145Z,6.38
2023-02-03T00:44:11.563Z,5.78
2023-02-03T00:46:39.681Z,5.88
2023-02-03T00:49:09.770Z,5.93
2023-02-03T00:51:38.641Z,6.13
2023-02-03T00:54:05.883Z,7.20
2023-02-03T00:56:33.416Z,6.80
2023-02-03T00:59:00.707Z,6.35
2023-02-03T01:01:28.302Z,6.22
2023-02-03T01:03:56.592Z,6.03
2023-02-03T01:06:24.454Z,6.75
2023-02-03T01:08:52.158Z,6.30
2023-02-03T01:11:22.893Z,6.30
2023-02-03T01:13:51.679Z,6.82
2023-02-03T01:16:22.002Z,8.55
2023-02-03T01:18:50.625Z,9.07
2023-02-03T01:21:21.282Z,10.32
2023-02-03T01:23:48.679Z,9.52
2023-02-03T01:26:19.248Z,8.43
2023-02-03T01:29:06.232Z,8.43
2023-02-03T01:31:37.272Z,8.27
2023-02-03T01:34:13.394Z,9.13
2023-02-03T01:36:40.722Z,7.40
2023-02-03T01:39:08.570Z,8.80
2023-02-03T01:41:38.256Z,9.02
2023-02-03T01:44:55.232Z,8.98
2023-02-03T01:47:36.504Z,8.25
2023-02-03T01:50:25.393Z,8.40
2023-02-03T01:52:59.526Z,7.72
2023-02-03T01:55:33.400Z,8.93
2023-02-03T01:58:14.746Z,8.43
2023-02-03T02:01:33.510Z,7.85
2023-02-03T02:04:03.872Z,7.75
2023-02-03T02:06:31.637Z,6.85
2023-02-03T02:09:00.809Z,6.07
2023-02-03T02:11:28.601Z,7.72
2023-02-03T02:13:59.075Z,9.43
2023-02-03T02:16:46.031Z,9.93
2023-02-03T02:19:33.356Z,9.73
2023-02-03T02:22:20.232Z,8.80
2023-02-03T02:24:59.071Z,5.72
2023-02-03T02:27:36.595Z,5.45
2023-02-03T02:30:36.769Z,5.60
2023-02-03T02:33:41.277Z,6.32
2023-02-03T02:36:30.513Z,9.15
2023-02-03T02:39:12.814Z,8.00
2023-02-03T02:41:46.969Z,9.27
2023-02-03T02:44:30.757Z,8.13
2023-02-03T02:47:03.252Z,6.97
2023-02-03T02:49:30.585Z,6.55
2023-02-03T02:52:01.962Z,8.25
2023-02-03T02:54:32.233Z,6.82
2023-02-03T02:57:04.704Z,5.40
2023-02-03T02:59:32.697Z,5.50
2023-02-03T03:01:59.909Z,5.75
2023-02-03T03:04:30.192Z,5.85
2023-02-03T03:07:07.464Z,5.38
2023-02-03T03:09:47.824Z,5.72
2023-02-03T03:12:22.618Z,6.38
2023-02-03T03:14:59.466Z,4.93
2023-02-03T03:17:32.258Z,3.63
2023-02-03T03:20:04.759Z,3.70
2023-02-03T03:22:38.028Z,4.53
2023-02-03T03:25:12.621Z,4.20
2023-02-03T03:27:44.723Z,3.50
2023-02-03T03:30:18.526Z,3.72
2023-02-03T03:32:46.612Z,5.68
2023-02-03T03:35:14.136Z,4.10
2023-02-03T03:38:00.196Z,4.95
2023-02-03T03:40:34.921Z,4.63
2023-02-03T03:43:11.093Z,4.20
2023-02-03T03:45:45.785Z,3.38
2023-02-03T03:48:24.518Z,3.65
2023-02-03T03:51:09.295Z,3.83
2023-02-03T03:53:41.259Z,4.55
2023-02-03T03:56:15.911Z,5.47
2023-02-03T03:58:47.382Z,7.25
2023-02-03T04:01:16.828Z,5.22
2023-02-03T04:03:50.711Z,5.10
2023-02-03T04:06:18.351Z,4.32
2023-02-03T04:08:45.392Z,4.10
2023-02-03T04:11:32.809Z,4.82
2023-02-03T04:13:59.915Z,4.45
2023-02-03T04:16:27.326Z,5.15
2023-02-03T04:18:54.534Z,4.80
2023-02-03T04:21:22.137Z,4.97
2023-02-03T04:23:50.552Z,6.07
2023-02-03T04:26:18.220Z,5.45
2023-02-03T04:28:45.461Z,5.10
2023-02-03T04:31:13.118Z,5.32
2023-02-03T04:33:40.302Z,5.80
2023-02-03T04:36:08.266Z,4.53
2023-02-03T04:38:35.445Z,4.22
2023-02-03T04:41:02.863Z,4.55
2023-02-03T04:43:30.060Z,5.25
2023-02-03T04:46:00.334Z,6.00
2023-02-03T04:48:28.134Z,5.28
2023-02-03T04:50:55.621Z,3.85
2023-02-03T04:53:22.693Z,4.53
2023-02-03T04:55:50.426Z,3.97
2023-02-03T04:58:17.621Z,3.83
2023-02-03T05:00:45.276Z,4.43
2023-02-03T05:03:12.525Z,4.57
2023-02-03T05:05:40.303Z,5.47
2023-02-03T05:08:08.069Z,8.10
2023-02-03T05:10:35.610Z,5.88
2023-02-03T05:13:03.339Z,5.25
2023-02-03T05:15:30.808Z,5.45
2023-02-03T05:17:58.611Z,6.13
2023-02-03T05:20:26.634Z,5.82
2023-02-03T05:22:53.911Z,6.05
2023-02-03T05:25:21.419Z,7.80
2023-02-03T05:27:48.797Z,7.72
2023-02-03T05:30:17.560Z,9.55
2023-02-03T05:32:44.762Z,9.90
2023-02-03T05:35:12.403Z,10.00
2023-02-03T05:37:40.752Z,9.52
2023-02-03T05:40:35.149Z,10.77
2023-02-03T05:43:02.820Z,11.60
2023-02-03T05:45:30.505Z,10.60
2023-02-03T05:47:57.585Z,12.82
2023-02-03T05:50:27.234Z,15.32
2023-02-03T05:53:08.459Z,15.55
2023-02-03T05:55:37.884Z,17.23
2023-02-03T05:58:05.711Z,15.30
2023-02-03T06:00:33.458Z,17.27
2023-02-03T06:03:03.196Z,14.57
2023-02-03T06:05:34.172Z,12.93
2023-02-03T06:08:02.203Z,15.05
2023-02-03T06:10:30.224Z,13.32
2023-02-03T06:12:57.509Z,13.77
2023-02-03T06:15:24.932Z,12.50
2023-02-03T06:17:52.019Z,12.93
2023-02-03T06:20:20.736Z,10.95
2023-02-03T06:22:48.099Z,11.35
2023-02-03T06:25:15.662Z,11.23
2023-02-03T06:27:42.981Z,10.25
2023-02-03T06:30:11.574Z,10.15
2023-02-03T06:32:39.322Z,9.75
2023-02-03T06:35:07.714Z,8.52
2023-02-03T06:37:35.755Z,12.82
2023-02-03T06:40:05.118Z,9.32
2023-02-03T06:42:32.975Z,13.57
2023-02-03T06:45:00.565Z,8.98
2023-02-03T06:47:28.053Z,10.40
2023-02-03T06:49:56.893Z,10.63
2023-02-03T06:52:24.880Z,8.95
2023-02-03T06:54:53.299Z,10.38
2023-02-03T06:57:21.653Z,9.02
2023-02-03T07:02:19.217Z,9.02
2023-02-03T07:04:46.855Z,8.88
2023-02-03T07:07:14.283Z,8.70
2023-02-03T07:09:42.127Z,9.43
2023-02-03T07:12:10.458Z,8.52
2023-02-03T07:14:39.444Z,48.67
2023-02-03T07:17:07.294Z,30.35
2023-02-03T07:19:34.663Z,114.20
2023-02-03T07:22:01.890Z,95.97
2023-02-03T07:24:29.205Z,32.97
2023-02-03T07:26:56.244Z,76.13
2023-02-03T07:29:23.708Z,75.53
2023-02-03T07:31:50.875Z,39.42
2023-02-03T07:34:18.386Z,37.08
2023-02-03T07:36:45.544Z,74.38
2023-02-03T07:39:13.078Z,53.97
2023-02-03T07:41:40.223Z,38.72
2023-02-03T07:44:09.399Z,12.40
2023-02-03T07:46:39.886Z,14.63
2023-02-03T07:49:08.108Z,9.07
2023-02-03T07:51:35.175Z,10.32
2023-02-03T07:54:02.687Z,8.90
2023-02-03T07:56:30.727Z,11.77
2023-02-03T07:58:59.566Z,14.60
2023-02-03T08:01:26.788Z,12.30
2023-02-03T08:03:55.214Z,9.15
2023-02-03T08:06:22.964Z,8.43
2023-02-03T08:08:50.485Z,8.20
2023-02-03T08:11:17.782Z,9.15
2023-02-03T08:13:45.176Z,8.73
2023-02-03T08:16:12.383Z,9.60
2023-02-03T08:18:39.877Z,7.15
2023-02-03T08:21:06.990Z,8.00
2023-02-03T08:23:34.384Z,9.00
2023-02-03T08:26:01.441Z,9.75
2023-02-03T08:28:28.882Z,7.88
2023-02-03T08:30:57.676Z,8.10
2023-02-03T08:33:25.272Z,8.07
2023-02-03T08:35:52.430Z,6.32
2023-02-03T08:38:21.893Z,8.10
2023-02-03T08:40:49.255Z,9.77
2023-02-03T08:43:16.819Z,11.65
2023-02-03T08:45:44.133Z,33.75
2023-02-03T08:48:11.733Z,22.77
2023-02-03T08:50:42.863Z,15.48
2023-02-03T08:53:11.381Z,25.67
2023-02-03T08:55:43.915Z,9.40
2023-02-03T08:58:11.338Z,7.88
2023-02-03T09:00:38.688Z,8.48
2023-02-03T09:03:06.103Z,10.25
2023-02-03T09:05:33.986Z,11.45
2023-02-03T09:08:01.657Z,10.95
2023-02-03T09:10:29.410Z,9.40
2023-02-03T09:12:57.154Z,11.13
2023-02-03T09:15:24.206Z,17.95
2023-02-03T09:17:51.687Z,13.55
2023-02-03T09:20:19.405Z,11.27
2023-02-03T09:22:46.874Z,11.68
2023-02-03T09:25:16.317Z,17.20
2023-02-03T09:27:43.834Z,12.43
2023-02-03T09:30:11.773Z,12.23
2023-02-03T09:32:39.225Z,12.07
2023-02-03T09:35:06.717Z,13.13
2023-02-03T09:37:34.182Z,14.45
2023-02-03T09:40:01.294Z,13.70
2023-02-03T09:42:54.918Z,13.40
2023-02-03T09:45:28.078Z,13.02
2023-02-03T09:48:03.885Z,13.43
2023-02-03T09:50:35.228Z,11.93
2023-02-03T09:53:27.077Z,10.07
2023-02-03T09:55:55.303Z,10.68
2023-02-03T09:58:23.057Z,10.93
2023-02-03T10:01:01.324Z,9.55
2023-02-03T10:03:54.572Z,10.05
2023-02-03T10:06:39.280Z,10.52
2023-02-03T10:09:18.900Z,9.93
2023-02-03T10:12:04.934Z,10.55
2023-02-03T10:14:44.477Z,11.40
2023-02-03T10:17:23.613Z,10.38
2023-02-03T10:20:09.297Z,10.50
2023-02-03T10:22:48.833Z,10.35
2023-02-03T10:27:44.247Z,10.90
2023-02-03T10:30:22.657Z,12.27
2023-02-03T10:33:11.373Z,12.75
2023-02-03T10:35:52.863Z,13.27
2023-02-03T10:38:43.880Z,13.70
2023-02-03T10:41:11.714Z,13.75
2023-02-03T10:43:48.833Z,15.88
2023-02-03T10:46:22.059Z,14.32
2023-02-03T10:48:49.651Z,15.43
2023-02-03T10:51:23.451Z,13.82
2023-02-03T10:53:54.468Z,15.30
2023-02-03T10:56:29.525Z,14.25
2023-02-03T10:58:59.385Z,14.93
2023-02-03T11:01:38.888Z,14.13
2023-02-03T11:04:09.940Z,14.52
2023-02-03T11:06:55.836Z,13.00
2023-02-03T11:09:34.906Z,13.70
2023-02-03T11:12:22.690Z,12.75
2023-02-03T11:14:53.711Z,12.88
2023-02-03T11:17:24.445Z,12.80
2023-02-03T11:19:59.157Z,12.13
2023-02-03T11:22:41.263Z,12.05
2023-02-03T11:25:38.195Z,11.40
2023-02-03T11:28:07.975Z,10.38
2023-02-03T11:30:35.168Z,12.57
2023-02-03T11:33:03.183Z,11.68
2023-02-03T11:35:31.987Z,11.75
2023-02-03T11:38:01.654Z,11.15
2023-02-03T11:40:29.451Z,12.60
2023-02-03T11:42:57.233Z,11.23
2023-02-03T11:45:26.961Z,12.40
2023-02-03T11:48:16.276Z,12.70
2023-02-03T11:51:03.341Z,13.27
2023-02-03T11:53:56.149Z,12.90
2023-02-03T11:56:42.452Z,11.95
2023-02-03T11:59:25.707Z,12.07
2023-02-03T12:01:58.843Z,11.13
2023-02-03T12:05:00.948Z,11.85
2023-02-03T12:08:04.780Z,11.65
2023-02-03T12:10:38.252Z,12.82
2023-02-03T12:13:17.560Z,11.13
2023-02-03T12:16:03.524Z,11.15
2023-02-03T12:18:47.424Z,11.63
2023-02-03T12:21:44.700Z,12.05
2023-02-03T12:24:33.027Z,11.27
2023-02-03T12:27:32.727Z,12.02
2023-02-03T12:30:11.955Z,11.90
2023-02-03T12:32:48.439Z,11.30
2023-02-03T12:35:15.768Z,12.20
2023-02-03T12:38:12.526Z,12.18
2023-02-03T12:40:49.265Z,12.10
2023-02-03T12:43:28.035Z,12.48
2023-02-03T12:46:04.672Z,13.15
2023-02-03T12:48:52.144Z,13.70
2023-02-03T12:51:31.042Z,13.00
2023-02-03T12:54:05.282Z,13.18
2023-02-03T12:56:40.473Z,11.82
2023-02-03T12:59:22.849Z,11.90
2023-02-03T13:01:56.804Z,11.93
2023-02-03T13:04:49.930Z,12.55
2023-02-03T13:07:26.044Z,11.25
2023-02-03T13:10:04.039Z,10.95
2023-02-03T13:12:37.256Z,9.73
2023-02-03T13:15:28.652Z,9.25
2023-02-03T13:18:11.138Z,9.23
2023-02-03T13:20:39.126Z,9.57
2023-02-03T13:23:12.696Z,8.38
2023-02-03T13:25:43.135Z,8.48
2023-02-03T13:28:38.091Z,8.55
2023-02-03T13:31:39.656Z,8.52
2023-02-03T13:34:21.903Z,9.27
2023-02-03T13:37:06.291Z,8.07
2023-02-03T13:40:07.071Z,6.95
2023-02-03T13:42:41.086Z,7.10
2023-02-03T13:45:23.453Z,7.40
2023-02-03T13:47:55.641Z,6.70
2023-02-03T13:50:27.776Z,7.53
2023-02-03T13:52:58.582Z,7.72
2023-02-03T13:55:39.684Z,6.97
2023-02-03T13:58:20.107Z,6.07
2023-02-03T14:00:47.529Z,5.93
2023-02-03T14:03:39.835Z,5.95
2023-02-03T14:06:35.988Z,5.80
2023-02-03T14:09:35.490Z,5.63
2023-02-03T14:12:33.112Z,6.03
2023-02-03T14:15:15.816Z,5.95
2023-02-03T14:17:43.008Z,7.55
2023-02-03T14:20:27.141Z,7.03
2023-02-03T14:22:54.504Z,8.32
2023-02-03T14:25:22.504Z,8.10
2023-02-03T14:28:09.818Z,8.20
2023-02-03T14:31:07.494Z,9.70
2023-02-03T14:33:57.904Z,9.20
2023-02-03T14:36:31.718Z,9.45
2023-02-03T14:39:21.257Z,9.48
2023-02-03T14:42:01.919Z,9.70
2023-02-03T14:44:35.355Z,10.52
2023-02-03T14:47:31.541Z,11.60
2023-02-03T14:50:09.013Z,12.70
2023-02-03T14:53:24.139Z,12.75
2023-02-03T14:56:01.167Z,12.52
2023-02-03T14:58:50.169Z,12.70
2023-02-03T15:01:29.281Z,13.52
2023-02-03T15:04:12.553Z,13.93
2023-02-03T15:06:41.538Z,14.52
2023-02-03T15:09:43.233Z,13.25
2023-02-03T15:12:19.013Z,14.60
2023-02-03T15:14:46.585Z,14.85
2023-02-03T15:17:22.105Z,15.32
2023-02-03T15:19:50.312Z,16.13
2023-02-03T15:22:22.554Z,17.35
2023-02-03T15:24:58.894Z,18.05
2023-02-03T15:27:29.900Z,18.60
2023-02-03T15:29:59.376Z,17.73
2023-02-03T15:32:41.014Z,17.67
2023-02-03T15:35:19.131Z,17.75
2023-02-03T15:37:53.758Z,17.80
2023-02-03T15:40:24.356Z,18.85
2023-02-03T15:43:04.544Z,18.50
2023-02-03T15:45:36.034Z,18.45
2023-02-03T15:48:19.365Z,18.63
2023-02-03T15:51:14.283Z,18.67
2023-02-03T15:54:03.802Z,17.13
2023-02-03T15:56:41.347Z,17.15
2023-02-03T15:59:26.168Z,17.95
2023-02-03T16:01:54.436Z,18.10
2023-02-03T16:04:23.351Z,17.52
2023-02-03T16:06:53.762Z,17.65
2023-02-03T16:09:41.757Z,17.30
2023-02-03T16:12:29.794Z,16.92
2023-02-03T16:15:00.222Z,16.85
2023-02-03T16:17:34.253Z,18.65
2023-02-03T16:20:21.536Z,17.33
2023-02-03T16:23:19.271Z,17.42
2023-02-03T16:26:15.485Z,18.05
2023-02-03T16:29:01.765Z,19.92
2023-02-03T16:31:48.154Z,17.08
2023-02-03T16:34:38.043Z,17.00
2023-02-03T16:37:47.634Z,17.63
2023-02-03T16:40:39.870Z,15.80
2023-02-03T16:43:31.423Z,15.75
2023-02-03T16:46:19.790Z,16.20
2023-02-03T16:49:06.107Z,14.05
2023-02-03T16:51:40.181Z,13.75
2023-02-03T16:54:11.450Z,13.73
2023-02-03T16:56:39.433Z,13.07
2023-02-03T16:59:07.238Z,12.93
2023-02-03T17:01:36.159Z,13.63
2023-02-03T17:04:03.948Z,15.23
2023-02-03T17:06:33.528Z,14.30
2023-02-03T17:09:01.207Z,12.43
2023-02-03T17:11:29.094Z,12.30
2023-02-03T17:13:57.162Z,12.02
2023-02-03T17:16:26.991Z,10.70
2023-02-03T17:21:29.073Z,10.55
2023-02-03T17:23:58.467Z,10.00
2023-02-03T17:28:54.231Z,9.35
2023-02-03T17:31:22.612Z,10.88
2023-02-03T17:33:52.251Z,10.75
2023-02-03T17:36:24.214Z,10.70
2023-02-03T17:55:32.322Z,8.93
2023-02-03T18:00:32.686Z,8.90
2023-02-03T18:03:01.642Z,10.20
2023-02-03T18:05:29.651Z,11.52
2023-02-03T18:07:59.160Z,9.02
2023-02-03T18:10:31.799Z,12.63
2023-02-03T18:13:00.527Z,10.00
2023-02-03T18:15:28.683Z,9.40
2023-02-03T18:17:57.509Z,11.60
2023-02-03T18:20:25.587Z,10.90
2023-02-03T18:22:54.211Z,10.43
2023-02-03T18:25:22.299Z,11.88
2023-02-03T18:27:52.397Z,12.00
2023-02-03T18:32:53.520Z,11.45
2023-02-03T18:35:21.033Z,11.77
2023-02-03T18:37:48.788Z,10.60
2023-02-03T18:40:16.471Z,13.50
2023-02-03T18:42:44.157Z,12.88
2023-02-03T18:45:12.018Z,13.23
2023-02-03T18:47:40.308Z,12.63
2023-02-03T18:50:08.888Z,13.52
2023-02-03T18:52:38.774Z,13.80
2023-02-03T18:55:07.890Z,14.10
2023-02-03T18:57:40.101Z,13.60
2023-02-03T19:00:10.416Z,13.15
2023-02-03T19:05:09.008Z,11.60
2023-02-03T19:07:37.502Z,11.20
2023-02-03T19:10:05.764Z,12.10
2023-02-03T19:12:35.342Z,11.80
2023-02-03T19:15:03.324Z,9.80
2023-02-03T19:17:31.594Z,11.45
2023-02-03T19:19:59.449Z,10.80
2023-02-03T19:22:28.036Z,10.23
2023-02-03T19:24:56.647Z,9.70
2023-02-03T19:27:25.834Z,10.47
2023-02-03T19:29:53.305Z,9.52
2023-02-03T19:32:21.025Z,9.45
2023-02-03T19:34:48.482Z,9.48
2023-02-03T19:37:16.197Z,10.20
2023-02-03T19:39:45.145Z,10.63
2023-02-03T19:42:12.854Z,10.45
2023-02-03T19:44:40.268Z,11.10
2023-02-03T19:47:08.160Z,10.95
2023-02-03T19:49:35.502Z,11.23
2023-02-03T19:52:03.946Z,10.95
2023-02-03T19:54:31.365Z,8.45
2023-02-03T19:56:59.099Z,8.85
2023-02-03T19:59:26.806Z,8.23
2023-02-03T20:01:55.399Z,8.60
2023-02-03T20:04:24.663Z,8.43
2023-02-03T20:06:52.428Z,8.25
2023-02-03T20:09:19.716Z,8.35
2023-02-03T20:11:48.923Z,8.65
2023-02-03T20:14:16.879Z,9.25
2023-02-03T20:16:45.031Z,8.70
2023-02-03T20:19:12.845Z,9.65
2023-02-03T20:21:40.675Z,9.98
2023-02-03T20:24:07.979Z,9.73
2023-02-03T20:26:36.210Z,9.02
2023-02-03T20:29:05.164Z,9.13
2023-02-03T20:31:33.582Z,9.63
2023-02-03T20:34:01.454Z,8.90
2023-02-03T20:36:29.868Z,8.65
2023-02-03T20:38:57.956Z,7.97
2023-02-03T20:41:25.888Z,8.80
2023-02-03T20:43:54.884Z,7.88
2023-02-03T20:46:23.538Z,14.35
2023-02-03T20:48:51.894Z,14.18
2023-02-03T20:51:22.431Z,48.33
2023-02-03T20:56:22.143Z,27.65
2023-02-03T20:58:49.753Z,43.40
2023-02-03T21:01:20.856Z,63.47
2023-02-03T21:04:07.774Z,52.88
2023-02-03T21:06:36.811Z,31.58
2023-02-03T21:09:21.631Z,21.45
2023-02-03T21:11:53.211Z,18.90
2023-02-03T21:14:29.395Z,27.55
2023-02-03T21:16:57.796Z,15.30
2023-02-03T21:19:31.737Z,21.02
2023-02-03T21:22:12.722Z,17.70
2023-02-03T21:24:50.734Z,8.75
2023-02-03T21:27:25.007Z,17.40
2023-02-03T21:29:57.654Z,29.13
2023-02-03T21:32:34.750Z,20.88
2023-02-03T21:35:02.393Z,23.25
2023-02-03T21:37:41.898Z,10.98
2023-02-03T21:40:24.591Z,12.47
2023-02-03T21:42:54.505Z,12.77
2023-02-03T21:47:53.645Z,15.35
2023-02-03T21:50:41.714Z,11.57
2023-02-03T21:53:13.655Z,18.30
2023-02-03T21:55:42.798Z,20.27
2023-02-03T21:58:23.878Z,23.17
2023-02-03T22:00:54.531Z,16.27
2023-02-03T22:03:28.345Z,21.48
2023-02-03T22:06:24.136Z,17.45
2023-02-03T22:08:55.024Z,18.15
2023-02-03T22:11:24.904Z,18.67
2023-02-03T22:13:52.599Z,20.40
2023-02-03T22:16:20.214Z,14.05
2023-02-03T22:18:49.505Z,16.50
2023-02-03T22:21:18.211Z,24.83
2023-02-03T22:23:47.082Z,13.70
2023-02-03T22:26:16.291Z,10.40
2023-02-03T22:28:44.996Z,9.52
2023-02-03T22:31:13.137Z,10.45
2023-02-03T22:33:41.983Z,10.35
2023-02-03T22:36:10.655Z,7.70
2023-02-03T22:38:39.722Z,10.10
2023-02-03T22:41:08.072Z,8.03
2023-02-03T22:43:35.781Z,8.93
2023-02-03T22:46:05.023Z,7.28
2023-02-03T22:51:01.546Z,6.70
2023-02-03T22:53:30.251Z,7.40
2023-02-03T22:55:58.023Z,6.32
2023-02-03T22:58:25.959Z,6.45
2023-02-03T23:00:53.474Z,5.43
2023-02-03T23:03:21.241Z,5.85
2023-02-03T23:05:48.865Z,6.22
2023-02-03T23:08:16.946Z,4.82
2023-02-03T23:10:44.357Z,4.55
2023-02-03T23:13:12.112Z,4.30
2023-02-03T23:15:39.635Z,3.95
2023-02-03T23:18:07.252Z,4.35
2023-02-03T23:20:34.476Z,4.28
2023-02-03T23:23:02.156Z,3.92
2023-02-03T23:25:29.537Z,3.70
2023-02-03T23:27:57.323Z,3.83
2023-02-03T23:30:24.566Z,3.88
2023-02-03T23:32:52.128Z,4.07
2023-02-03T23:35:37.844Z,3.80
2023-02-03T23:38:05.497Z,3.83
2023-02-03T23:40:33.127Z,3.55
2023-02-03T23:43:01.013Z,3.58
2023-02-03T23:45:28.605Z,3.38
2023-02-03T23:47:56.230Z,3.58
2023-02-03T23:50:23.984Z,2.92
2023-02-03T23:52:51.622Z,2.80
2023-02-03T23:55:21.079Z,2.70
